sensor_id;sensor_type;location;lat;lon;timestamp;P1;durP1;ratioP1;P2;durP2;ratioP2
64649;SDS011;51061;45.258;38.112;2022-10-20T00:01:20;41.13;;;14.03;;
64649;SDS011;51061;45.258;38.112;2022-10-20T00:03:48;40.25;;;14.43;;
64649;SDS011;51061;45.258;38.112;2022-10-20T00:06:19;37.95;;;13.40;;
64649;SDS011;51061;45.258;38.112;2022-10-20T00:08:51;41.00;;;14.73;;
64649;SDS011;51061;45.258;38.112;2022-10-20T00:11:18;35.22;;;11.57;;
64649;SDS011;51061;45.258;38.112;2022-10-20T00:13:46;32.80;;;11.10;;
64649;SDS011;51061;45.258;38.112;2022-10-20T00:16:13;36.70;;;10.95;;
64649;SDS011;51061;45.258;38.112;2022-10-20T00:18:43;28.40;;;9.55;;
64649;SDS011;51061;45.258;38.112;2022-10-20T00:21:11;31.67;;;10.23;;
64649;SDS011;51061;45.258;38.112;2022-10-20T00:23:39;28.35;;;10.00;;
64649;SDS011;51061;45.258;38.112;2022-10-20T00:26:06;28.85;;;10.35;;
64649;SDS011;51061;45.258;38.112;2022-10-20T00:28:34;33.65;;;12.10;;
64649;SDS011;51061;45.258;38.112;2022-10-20T00:31:01;37.97;;;12.07;;
64649;SDS011;51061;45.258;38.112;2022-10-20T00:33:27;31.77;;;13.25;;
64649;SDS011;51061;45.258;38.112;2022-10-20T00:35:54;37.05;;;13.07;;
64649;SDS011;51061;45.258;38.112;2022-10-20T00:38:24;27.27;;;8.73;;
64649;SDS011;51061;45.258;38.112;2022-10-20T00:40:50;30.27;;;9.25;;
64649;SDS011;51061;45.258;38.112;2022-10-20T00:43:16;22.52;;;8.68;;
64649;SDS011;51061;45.258;38.112;2022-10-20T00:45:44;31.23;;;9.60;;
64649;SDS011;51061;45.258;38.112;2022-10-20T00:48:20;20.58;;;7.70;;
64649;SDS011;51061;45.258;38.112;2022-10-20T00:50:51;26.67;;;8.20;;
64649;SDS011;51061;45.258;38.112;2022-10-20T00:53:23;20.27;;;7.93;;
64649;SDS011;51061;45.258;38.112;2022-10-20T00:55:53;21.40;;;7.30;;
64649;SDS011;51061;45.258;38.112;2022-10-20T00:58:22;22.77;;;7.90;;
64649;SDS011;51061;45.258;38.112;2022-10-20T01:00:50;24.75;;;7.45;;
64649;SDS011;51061;45.258;38.112;2022-10-20T01:03:25;20.73;;;7.53;;
64649;SDS011;51061;45.258;38.112;2022-10-20T01:05:56;19.57;;;7.40;;
64649;SDS011;51061;45.258;38.112;2022-10-20T01:08:22;20.42;;;7.25;;
64649;SDS011;51061;45.258;38.112;2022-10-20T01:11:11;23.80;;;8.00;;
64649;SDS011;51061;45.258;38.112;2022-10-20T01:16:11;19.00;;;6.75;;
64649;SDS011;51061;45.258;38.112;2022-10-20T01:19:02;16.88;;;6.47;;
64649;SDS011;51061;45.258;38.112;2022-10-20T01:27:38;16.65;;;6.80;;
64649;SDS011;51061;45.258;38.112;2022-10-20T01:30:09;22.40;;;7.15;;
64649;SDS011;51061;45.258;38.112;2022-10-20T01:41:05;27.20;;;7.15;;
64649;SDS011;51061;45.258;38.112;2022-10-20T01:43:37;29.20;;;8.57;;
64649;SDS011;51061;45.258;38.112;2022-10-20T01:46:05;20.23;;;6.22;;
64649;SDS011;51061;45.258;38.112;2022-10-20T01:48:33;18.05;;;6.32;;
64649;SDS011;51061;45.258;38.112;2022-10-20T01:51:02;20.00;;;5.93;;
64649;SDS011;51061;45.258;38.112;2022-10-20T01:53:29;10.60;;;4.43;;
64649;SDS011;51061;45.258;38.112;2022-10-20T01:55:55;20.65;;;5.78;;
64649;SDS011;51061;45.258;38.112;2022-10-20T02:01:13;15.02;;;5.40;;
64649;SDS011;51061;45.258;38.112;2022-10-20T02:03:54;19.95;;;5.63;;
64649;SDS011;51061;45.258;38.112;2022-10-20T02:06:42;15.63;;;4.75;;
64649;SDS011;51061;45.258;38.112;2022-10-20T02:09:38;18.10;;;5.18;;
64649;SDS011;51061;45.258;38.112;2022-10-20T02:12:12;25.67;;;6.35;;
64649;SDS011;51061;45.258;38.112;2022-10-20T02:14:42;17.73;;;5.88;;
64649;SDS011;51061;45.258;38.112;2022-10-20T02:17:11;21.30;;;7.38;;
64649;SDS011;51061;45.258;38.112;2022-10-20T02:19:41;20.60;;;8.43;;
64649;SDS011;51061;45.258;38.112;2022-10-20T02:22:09;19.80;;;7.80;;
64649;SDS011;51061;45.258;38.112;2022-10-20T02:24:38;19.52;;;5.38;;
64649;SDS011;51061;45.258;38.112;2022-10-20T02:27:09;18.00;;;5.80;;
64649;SDS011;51061;45.258;38.112;2022-10-20T02:29:41;20.40;;;6.10;;
64649;SDS011;51061;45.258;38.112;2022-10-20T02:32:12;18.02;;;5.82;;
64649;SDS011;51061;45.258;38.112;2022-10-20T02:34:39;13.07;;;5.63;;
64649;SDS011;51061;45.258;38.112;2022-10-20T02:37:06;18.27;;;5.32;;
64649;SDS011;51061;45.258;38.112;2022-10-20T02:39:32;19.67;;;5.93;;
64649;SDS011;51061;45.258;38.112;2022-10-20T02:41:58;20.10;;;5.38;;
64649;SDS011;51061;45.258;38.112;2022-10-20T02:44:24;15.60;;;5.75;;
64649;SDS011;51061;45.258;38.112;2022-10-20T02:46:50;18.23;;;5.65;;
64649;SDS011;51061;45.258;38.112;2022-10-20T02:49:16;17.92;;;5.72;;
64649;SDS011;51061;45.258;38.112;2022-10-20T02:51:42;16.33;;;5.18;;
64649;SDS011;51061;45.258;38.112;2022-10-20T02:54:08;17.10;;;5.28;;
64649;SDS011;51061;45.258;38.112;2022-10-20T02:56:34;16.80;;;5.30;;
64649;SDS011;51061;45.258;38.112;2022-10-20T02:59:00;15.13;;;5.10;;
64649;SDS011;51061;45.258;38.112;2022-10-20T03:01:26;17.58;;;4.50;;
64649;SDS011;51061;45.258;38.112;2022-10-20T03:03:52;18.05;;;5.15;;
64649;SDS011;51061;45.258;38.112;2022-10-20T03:06:22;17.67;;;4.73;;
64649;SDS011;51061;45.258;38.112;2022-10-20T03:08:48;17.98;;;5.10;;
64649;SDS011;51061;45.258;38.112;2022-10-20T03:11:14;11.90;;;4.65;;
64649;SDS011;51061;45.258;38.112;2022-10-20T03:13:40;15.32;;;5.60;;
64649;SDS011;51061;45.258;38.112;2022-10-20T03:16:06;17.50;;;5.43;;
64649;SDS011;51061;45.258;38.112;2022-10-20T03:18:33;17.60;;;5.43;;
64649;SDS011;51061;45.258;38.112;2022-10-20T03:20:59;19.30;;;4.80;;
64649;SDS011;51061;45.258;38.112;2022-10-20T03:23:25;12.82;;;4.43;;
64649;SDS011;51061;45.258;38.112;2022-10-20T03:25:51;17.38;;;4.80;;
64649;SDS011;51061;45.258;38.112;2022-10-20T03:28:17;15.90;;;4.90;;
64649;SDS011;51061;45.258;38.112;2022-10-20T03:30:43;14.40;;;5.43;;
64649;SDS011;51061;45.258;38.112;2022-10-20T03:33:10;21.63;;;6.10;;
64649;SDS011;51061;45.258;38.112;2022-10-20T03:35:37;22.15;;;6.43;;
64649;SDS011;51061;45.258;38.112;2022-10-20T03:38:03;30.75;;;8.85;;
64649;SDS011;51061;45.258;38.112;2022-10-20T03:40:28;29.58;;;9.27;;
64649;SDS011;51061;45.258;38.112;2022-10-20T03:42:55;23.63;;;7.68;;
64649;SDS011;51061;45.258;38.112;2022-10-20T03:45:21;27.50;;;6.80;;
64649;SDS011;51061;45.258;38.112;2022-10-20T03:47:47;25.33;;;6.97;;
64649;SDS011;51061;45.258;38.112;2022-10-20T03:50:13;19.33;;;6.35;;
64649;SDS011;51061;45.258;38.112;2022-10-20T03:52:39;28.80;;;7.50;;
64649;SDS011;51061;45.258;38.112;2022-10-20T03:55:05;23.65;;;8.18;;
64649;SDS011;51061;45.258;38.112;2022-10-20T03:59:57;25.13;;;8.33;;
64649;SDS011;51061;45.258;38.112;2022-10-20T04:02:31;26.52;;;8.73;;
64649;SDS011;51061;45.258;38.112;2022-10-20T04:07:26;29.90;;;9.30;;
64649;SDS011;51061;45.258;38.112;2022-10-20T04:09:52;32.95;;;11.85;;
64649;SDS011;51061;45.258;38.112;2022-10-20T04:14:44;29.63;;;9.87;;
64649;SDS011;51061;45.258;38.112;2022-10-20T04:17:10;22.58;;;8.75;;
64649;SDS011;51061;45.258;38.112;2022-10-20T04:19:36;21.52;;;7.00;;
64649;SDS011;51061;45.258;38.112;2022-10-20T04:22:02;15.32;;;5.85;;
64649;SDS011;51061;45.258;38.112;2022-10-20T04:24:28;19.05;;;7.03;;
64649;SDS011;51061;45.258;38.112;2022-10-20T04:26:54;14.15;;;6.15;;
64649;SDS011;51061;45.258;38.112;2022-10-20T04:29:21;17.13;;;6.13;;
64649;SDS011;51061;45.258;38.112;2022-10-20T04:34:13;17.43;;;7.00;;
64649;SDS011;51061;45.258;38.112;2022-10-20T04:36:39;24.25;;;7.43;;
64649;SDS011;51061;45.258;38.112;2022-10-20T04:39:05;20.35;;;6.95;;
64649;SDS011;51061;45.258;38.112;2022-10-20T04:41:31;25.13;;;8.00;;
64649;SDS011;51061;45.258;38.112;2022-10-20T04:43:57;20.48;;;6.03;;
64649;SDS011;51061;45.258;38.112;2022-10-20T04:46:23;23.08;;;6.95;;
64649;SDS011;51061;45.258;38.112;2022-10-20T04:48:51;20.55;;;6.65;;
64649;SDS011;51061;45.258;38.112;2022-10-20T04:51:17;16.27;;;5.70;;
64649;SDS011;51061;45.258;38.112;2022-10-20T04:53:44;21.30;;;8.25;;
64649;SDS011;51061;45.258;38.112;2022-10-20T04:58:37;26.35;;;7.75;;
64649;SDS011;51061;45.258;38.112;2022-10-20T05:01:05;22.52;;;6.80;;
64649;SDS011;51061;45.258;38.112;2022-10-20T05:03:34;26.52;;;7.88;;
64649;SDS011;51061;45.258;38.112;2022-10-20T05:06:11;28.03;;;8.00;;
64649;SDS011;51061;45.258;38.112;2022-10-20T05:08:39;21.13;;;8.05;;
64649;SDS011;51061;45.258;38.112;2022-10-20T05:11:06;22.70;;;8.05;;
64649;SDS011;51061;45.258;38.112;2022-10-20T05:13:32;22.52;;;8.55;;
64649;SDS011;51061;45.258;38.112;2022-10-20T05:15:59;26.10;;;8.77;;
64649;SDS011;51061;45.258;38.112;2022-10-20T05:18:25;32.33;;;9.68;;
64649;SDS011;51061;45.258;38.112;2022-10-20T05:20:51;37.75;;;13.73;;
64649;SDS011;51061;45.258;38.112;2022-10-20T05:23:17;46.65;;;14.57;;
64649;SDS011;51061;45.258;38.112;2022-10-20T05:25:43;46.25;;;12.65;;
64649;SDS011;51061;45.258;38.112;2022-10-20T05:28:09;33.40;;;10.95;;
64649;SDS011;51061;45.258;38.112;2022-10-20T05:30:35;36.85;;;11.68;;
64649;SDS011;51061;45.258;38.112;2022-10-20T05:33:01;28.33;;;10.07;;
64649;SDS011;51061;45.258;38.112;2022-10-20T05:35:28;29.35;;;10.68;;
64649;SDS011;51061;45.258;38.112;2022-10-20T05:37:55;36.83;;;12.02;;
64649;SDS011;51061;45.258;38.112;2022-10-20T05:40:22;38.78;;;11.40;;
64649;SDS011;51061;45.258;38.112;2022-10-20T05:42:48;29.60;;;10.43;;
64649;SDS011;51061;45.258;38.112;2022-10-20T05:45:14;38.70;;;13.07;;
64649;SDS011;51061;45.258;38.112;2022-10-20T05:47:41;37.25;;;12.88;;
64649;SDS011;51061;45.258;38.112;2022-10-20T05:50:09;36.88;;;11.65;;
64649;SDS011;51061;45.258;38.112;2022-10-20T05:52:36;45.17;;;12.68;;
64649;SDS011;51061;45.258;38.112;2022-10-20T05:55:02;40.50;;;13.95;;
64649;SDS011;51061;45.258;38.112;2022-10-20T05:57:29;36.90;;;14.40;;
64649;SDS011;51061;45.258;38.112;2022-10-20T05:59:55;42.17;;;12.85;;
64649;SDS011;51061;45.258;38.112;2022-10-20T06:02:21;47.33;;;13.15;;
64649;SDS011;51061;45.258;38.112;2022-10-20T06:04:47;30.05;;;11.48;;
64649;SDS011;51061;45.258;38.112;2022-10-20T06:07:13;37.05;;;12.35;;
64649;SDS011;51061;45.258;38.112;2022-10-20T06:09:39;29.88;;;9.77;;
64649;SDS011;51061;45.258;38.112;2022-10-20T06:12:05;34.55;;;10.50;;
64649;SDS011;51061;45.258;38.112;2022-10-20T06:16:58;34.88;;;9.85;;
64649;SDS011;51061;45.258;38.112;2022-10-20T06:19:24;22.48;;;8.93;;
64649;SDS011;51061;45.258;38.112;2022-10-20T06:21:50;23.35;;;8.35;;
64649;SDS011;51061;45.258;38.112;2022-10-20T06:24:17;27.55;;;8.30;;
64649;SDS011;51061;45.258;38.112;2022-10-20T06:26:44;28.63;;;8.10;;
64649;SDS011;51061;45.258;38.112;2022-10-20T06:29:14;19.40;;;6.20;;
64649;SDS011;51061;45.258;38.112;2022-10-20T06:31:43;19.65;;;4.80;;
64649;SDS011;51061;45.258;38.112;2022-10-20T06:34:14;15.68;;;4.55;;
64649;SDS011;51061;45.258;38.112;2022-10-20T06:36:43;14.07;;;4.72;;
64649;SDS011;51061;45.258;38.112;2022-10-20T06:39:10;18.77;;;4.88;;
64649;SDS011;51061;45.258;38.112;2022-10-20T06:41:39;16.50;;;4.10;;
64649;SDS011;51061;45.258;38.112;2022-10-20T06:44:13;11.98;;;3.80;;
64649;SDS011;51061;45.258;38.112;2022-10-20T06:46:38;10.60;;;3.78;;
64649;SDS011;51061;45.258;38.112;2022-10-20T06:49:05;11.55;;;3.28;;
64649;SDS011;51061;45.258;38.112;2022-10-20T06:51:33;7.50;;;2.47;;
64649;SDS011;51061;45.258;38.112;2022-10-20T06:54:00;9.80;;;2.90;;
64649;SDS011;51061;45.258;38.112;2022-10-20T06:56:27;21.02;;;3.38;;
64649;SDS011;51061;45.258;38.112;2022-10-20T06:58:55;6.60;;;2.63;;
64649;SDS011;51061;45.258;38.112;2022-10-20T07:01:23;14.10;;;2.88;;
64649;SDS011;51061;45.258;38.112;2022-10-20T07:03:52;12.07;;;2.55;;
64649;SDS011;51061;45.258;38.112;2022-10-20T07:06:21;6.72;;;2.33;;
64649;SDS011;51061;45.258;38.112;2022-10-20T07:08:49;6.78;;;3.58;;
64649;SDS011;51061;45.258;38.112;2022-10-20T07:11:18;6.28;;;2.50;;
64649;SDS011;51061;45.258;38.112;2022-10-20T07:13:46;7.57;;;2.00;;
64649;SDS011;51061;45.258;38.112;2022-10-20T07:16:14;9.63;;;2.10;;
64649;SDS011;51061;45.258;38.112;2022-10-20T07:18:42;10.15;;;2.30;;
64649;SDS011;51061;45.258;38.112;2022-10-20T07:21:13;8.15;;;2.45;;
64649;SDS011;51061;45.258;38.112;2022-10-20T07:23:41;7.43;;;2.83;;
64649;SDS011;51061;45.258;38.112;2022-10-20T07:26:10;11.23;;;2.63;;
64649;SDS011;51061;45.258;38.112;2022-10-20T07:28:42;8.15;;;2.42;;
64649;SDS011;51061;45.258;38.112;2022-10-20T07:31:11;8.13;;;2.38;;
64649;SDS011;51061;45.258;38.112;2022-10-20T07:33:39;9.05;;;2.47;;
64649;SDS011;51061;45.258;38.112;2022-10-20T07:36:10;8.00;;;2.35;;
64649;SDS011;51061;45.258;38.112;2022-10-20T07:38:37;8.93;;;2.08;;
64649;SDS011;51061;45.258;38.112;2022-10-20T07:43:29;6.60;;;1.98;;
64649;SDS011;51061;45.258;38.112;2022-10-20T07:45:55;7.10;;;2.38;;
64649;SDS011;51061;45.258;38.112;2022-10-20T07:48:21;11.95;;;2.45;;
64649;SDS011;51061;45.258;38.112;2022-10-20T07:50:47;10.65;;;2.35;;
64649;SDS011;51061;45.258;38.112;2022-10-20T07:53:13;9.85;;;2.40;;
64649;SDS011;51061;45.258;38.112;2022-10-20T07:55:39;8.18;;;2.75;;
64649;SDS011;51061;45.258;38.112;2022-10-20T07:58:05;7.97;;;2.30;;
64649;SDS011;51061;45.258;38.112;2022-10-20T08:00:31;10.63;;;2.70;;
64649;SDS011;51061;45.258;38.112;2022-10-20T08:05:23;5.15;;;2.20;;
64649;SDS011;51061;45.258;38.112;2022-10-20T08:07:49;11.18;;;2.58;;
64649;SDS011;51061;45.258;38.112;2022-10-20T08:12:41;12.93;;;3.13;;
64649;SDS011;51061;45.258;38.112;2022-10-20T08:15:07;17.27;;;2.65;;
64649;SDS011;51061;45.258;38.112;2022-10-20T08:17:33;7.25;;;2.30;;
64649;SDS011;51061;45.258;38.112;2022-10-20T08:19:59;10.88;;;2.75;;
64649;SDS011;51061;45.258;38.112;2022-10-20T08:22:25;7.82;;;2.78;;
64649;SDS011;51061;45.258;38.112;2022-10-20T08:24:51;8.32;;;2.90;;
64649;SDS011;51061;45.258;38.112;2022-10-20T08:27:18;11.50;;;2.53;;
64649;SDS011;51061;45.258;38.112;2022-10-20T08:29:44;7.45;;;2.78;;
64649;SDS011;51061;45.258;38.112;2022-10-20T08:32:10;9.57;;;2.50;;
64649;SDS011;51061;45.258;38.112;2022-10-20T09:23:56;11.20;;;3.63;;
64649;SDS011;51061;45.258;38.112;2022-10-20T09:26:40;8.40;;;2.85;;
64649;SDS011;51061;45.258;38.112;2022-10-20T09:29:10;9.77;;;4.07;;
64649;SDS011;51061;45.258;38.112;2022-10-20T09:31:37;12.52;;;4.97;;
64649;SDS011;51061;45.258;38.112;2022-10-20T09:34:19;16.10;;;6.05;;
64649;SDS011;51061;45.258;38.112;2022-10-20T09:36:47;15.80;;;4.32;;
64649;SDS011;51061;45.258;38.112;2022-10-20T09:39:22;16.17;;;4.10;;
64649;SDS011;51061;45.258;38.112;2022-10-20T09:44:28;13.65;;;4.28;;
64649;SDS011;51061;45.258;38.112;2022-10-20T09:46:57;14.18;;;3.40;;
64649;SDS011;51061;45.258;38.112;2022-10-20T09:49:34;15.55;;;5.38;;
64649;SDS011;51061;45.258;38.112;2022-10-20T09:52:03;41.20;;;13.40;;
64649;SDS011;51061;45.258;38.112;2022-10-20T10:36:32;43.50;;;13.52;;
64649;SDS011;51061;45.258;38.112;2022-10-20T10:39:00;48.20;;;14.23;;
64649;SDS011;51061;45.258;38.112;2022-10-20T10:44:23;56.50;;;19.33;;
64649;SDS011;51061;45.258;38.112;2022-10-20T10:47:23;66.93;;;20.05;;
64649;SDS011;51061;45.258;38.112;2022-10-20T10:52:47;36.45;;;11.88;;
64649;SDS011;51061;45.258;38.112;2022-10-20T10:55:33;19.55;;;5.55;;
64649;SDS011;51061;45.258;38.112;2022-10-20T11:06:11;27.17;;;6.90;;
64649;SDS011;51061;45.258;38.112;2022-10-20T11:08:51;28.77;;;8.65;;
64649;SDS011;51061;45.258;38.112;2022-10-20T11:11:27;27.73;;;8.40;;
64649;SDS011;51061;45.258;38.112;2022-10-20T11:14:42;40.55;;;13.25;;
64649;SDS011;51061;45.258;38.112;2022-10-20T11:17:15;26.00;;;7.63;;
64649;SDS011;51061;45.258;38.112;2022-10-20T11:25:46;21.88;;;5.68;;
64649;SDS011;51061;45.258;38.112;2022-10-20T11:28:32;34.72;;;5.90;;
64649;SDS011;51061;45.258;38.112;2022-10-20T11:31:20;23.45;;;6.40;;
64649;SDS011;51061;45.258;38.112;2022-10-20T11:34:03;26.50;;;5.95;;
64649;SDS011;51061;45.258;38.112;2022-10-20T11:36:36;18.30;;;6.93;;
64649;SDS011;51061;45.258;38.112;2022-10-20T11:39:25;15.45;;;5.80;;
64649;SDS011;51061;45.258;38.112;2022-10-20T11:47:50;24.42;;;8.23;;
64649;SDS011;51061;45.258;38.112;2022-10-20T11:50:22;35.15;;;10.10;;
64649;SDS011;51061;45.258;38.112;2022-10-20T11:56:03;38.90;;;12.70;;
64649;SDS011;51061;45.258;38.112;2022-10-20T12:14:55;26.45;;;7.78;;
64649;SDS011;51061;45.258;38.112;2022-10-20T12:17:28;19.15;;;6.35;;
64649;SDS011;51061;45.258;38.112;2022-10-20T12:22:53;21.30;;;6.25;;
64649;SDS011;51061;45.258;38.112;2022-10-20T12:36:19;28.98;;;7.78;;
64649;SDS011;51061;45.258;38.112;2022-10-20T12:41:57;30.65;;;9.18;;
64649;SDS011;51061;45.258;38.112;2022-10-20T12:44:39;41.17;;;13.32;;
64649;SDS011;51061;45.258;38.112;2022-10-20T12:47:08;48.60;;;15.88;;
64649;SDS011;51061;45.258;38.112;2022-10-20T12:49:48;50.15;;;17.02;;
64649;SDS011;51061;45.258;38.112;2022-10-20T12:52:21;58.63;;;17.45;;
64649;SDS011;51061;45.258;38.112;2022-10-20T12:54:52;40.85;;;14.00;;
64649;SDS011;51061;45.258;38.112;2022-10-20T12:57:27;28.58;;;8.70;;
64649;SDS011;51061;45.258;38.112;2022-10-20T13:00:01;17.70;;;5.57;;
64649;SDS011;51061;45.258;38.112;2022-10-20T13:02:29;26.10;;;6.15;;
64649;SDS011;51061;45.258;38.112;2022-10-20T13:15:48;33.85;;;9.05;;
64649;SDS011;51061;45.258;38.112;2022-10-20T13:18:26;42.28;;;12.65;;
64649;SDS011;51061;45.258;38.112;2022-10-20T13:21:18;34.00;;;10.38;;
64649;SDS011;51061;45.258;38.112;2022-10-20T13:26:51;33.00;;;10.55;;
64649;SDS011;51061;45.258;38.112;2022-10-20T13:29:24;33.25;;;11.15;;
64649;SDS011;51061;45.258;38.112;2022-10-20T13:34:56;14.52;;;5.53;;
64649;SDS011;51061;45.258;38.112;2022-10-20T13:40:13;29.23;;;8.25;;
64649;SDS011;51061;45.258;38.112;2022-10-20T13:51:26;13.63;;;4.43;;
64649;SDS011;51061;45.258;38.112;2022-10-20T13:53:55;15.43;;;4.35;;
64649;SDS011;51061;45.258;38.112;2022-10-20T13:59:03;14.93;;;4.13;;
64649;SDS011;51061;45.258;38.112;2022-10-20T14:01:33;23.80;;;6.45;;
64649;SDS011;51061;45.258;38.112;2022-10-20T14:04:00;23.00;;;4.97;;
64649;SDS011;51061;45.258;38.112;2022-10-20T14:08:54;28.30;;;6.07;;
64649;SDS011;51061;45.258;38.112;2022-10-20T14:11:21;22.50;;;5.55;;
64649;SDS011;51061;45.258;38.112;2022-10-20T14:16:18;35.88;;;9.60;;
64649;SDS011;51061;45.258;38.112;2022-10-20T14:19:03;36.63;;;9.65;;
64649;SDS011;51061;45.258;38.112;2022-10-20T14:21:40;31.63;;;8.43;;
64649;SDS011;51061;45.258;38.112;2022-10-20T14:24:12;31.98;;;8.98;;
64649;SDS011;51061;45.258;38.112;2022-10-20T14:26:43;30.13;;;7.57;;
64649;SDS011;51061;45.258;38.112;2022-10-20T14:29:13;24.27;;;5.70;;
64649;SDS011;51061;45.258;38.112;2022-10-20T14:31:41;24.80;;;6.35;;
64649;SDS011;51061;45.258;38.112;2022-10-20T14:34:19;20.92;;;7.13;;
64649;SDS011;51061;45.258;38.112;2022-10-20T14:36:56;24.92;;;7.68;;
64649;SDS011;51061;45.258;38.112;2022-10-20T14:44:27;40.97;;;11.30;;
64649;SDS011;51061;45.258;38.112;2022-10-20T14:46:54;62.10;;;20.08;;
64649;SDS011;51061;45.258;38.112;2022-10-20T14:49:29;41.92;;;12.05;;
64649;SDS011;51061;45.258;38.112;2022-10-20T14:51:59;13.93;;;4.38;;
64649;SDS011;51061;45.258;38.112;2022-10-20T14:54:31;12.80;;;3.47;;
64649;SDS011;51061;45.258;38.112;2022-10-20T14:59:53;9.48;;;3.53;;
64649;SDS011;51061;45.258;38.112;2022-10-20T15:02:38;8.00;;;3.10;;
64649;SDS011;51061;45.258;38.112;2022-10-20T15:08:16;12.60;;;2.97;;
64649;SDS011;51061;45.258;38.112;2022-10-20T15:10:44;13.82;;;2.78;;
64649;SDS011;51061;45.258;38.112;2022-10-20T15:15:51;6.65;;;2.22;;
64649;SDS011;51061;45.258;38.112;2022-10-20T15:18:18;10.20;;;2.72;;
64649;SDS011;51061;45.258;38.112;2022-10-20T15:20:46;6.18;;;2.50;;
64649;SDS011;51061;45.258;38.112;2022-10-20T15:31:05;38.28;;;13.60;;
64649;SDS011;51061;45.258;38.112;2022-10-20T15:33:43;39.33;;;12.77;;
64649;SDS011;51061;45.258;38.112;2022-10-20T15:36:17;33.22;;;10.43;;
64649;SDS011;51061;45.258;38.112;2022-10-20T15:38:48;25.98;;;8.30;;
64649;SDS011;51061;45.258;38.112;2022-10-20T15:41:19;18.53;;;6.63;;
64649;SDS011;51061;45.258;38.112;2022-10-20T15:43:47;33.03;;;9.93;;
64649;SDS011;51061;45.258;38.112;2022-10-20T15:46:13;50.17;;;15.00;;
64649;SDS011;51061;45.258;38.112;2022-10-20T15:48:40;23.93;;;8.43;;
64649;SDS011;51061;45.258;38.112;2022-10-20T15:51:19;15.90;;;5.70;;
64649;SDS011;51061;45.258;38.112;2022-10-20T15:53:50;12.33;;;4.00;;
64649;SDS011;51061;45.258;38.112;2022-10-20T15:58:42;22.03;;;6.17;;
64649;SDS011;51061;45.258;38.112;2022-10-20T16:01:12;18.83;;;5.70;;
64649;SDS011;51061;45.258;38.112;2022-10-20T16:03:39;15.10;;;4.83;;
64649;SDS011;51061;45.258;38.112;2022-10-20T16:06:05;33.60;;;8.77;;
64649;SDS011;51061;45.258;38.112;2022-10-20T16:08:31;21.95;;;7.13;;
64649;SDS011;51061;45.258;38.112;2022-10-20T16:11:00;30.73;;;11.13;;
64649;SDS011;51061;45.258;38.112;2022-10-20T16:13:27;27.50;;;7.40;;
64649;SDS011;51061;45.258;38.112;2022-10-20T16:15:53;37.05;;;10.80;;
64649;SDS011;51061;45.258;38.112;2022-10-20T16:18:19;60.85;;;16.60;;
64649;SDS011;51061;45.258;38.112;2022-10-20T16:20:46;46.53;;;15.67;;
64649;SDS011;51061;45.258;38.112;2022-10-20T16:23:12;68.93;;;20.33;;
64649;SDS011;51061;45.258;38.112;2022-10-20T16:25:38;78.13;;;23.85;;
64649;SDS011;51061;45.258;38.112;2022-10-20T16:28:06;82.77;;;28.23;;
64649;SDS011;51061;45.258;38.112;2022-10-20T16:30:32;90.93;;;29.07;;
64649;SDS011;51061;45.258;38.112;2022-10-20T16:32:58;95.28;;;30.77;;
64649;SDS011;51061;45.258;38.112;2022-10-20T16:35:24;111.93;;;35.30;;
64649;SDS011;51061;45.258;38.112;2022-10-20T16:37:51;107.93;;;37.80;;
64649;SDS011;51061;45.258;38.112;2022-10-20T16:40:19;122.97;;;41.23;;
64649;SDS011;51061;45.258;38.112;2022-10-20T16:42:47;103.90;;;36.70;;
64649;SDS011;51061;45.258;38.112;2022-10-20T16:45:13;85.07;;;27.55;;
64649;SDS011;51061;45.258;38.112;2022-10-20T16:47:39;45.78;;;14.02;;
64649;SDS011;51061;45.258;38.112;2022-10-20T16:50:05;36.00;;;9.43;;
64649;SDS011;51061;45.258;38.112;2022-10-20T16:52:32;22.33;;;5.27;;
64649;SDS011;51061;45.258;38.112;2022-10-20T16:54:59;20.70;;;5.23;;
64649;SDS011;51061;45.258;38.112;2022-10-20T16:57:25;14.95;;;4.53;;
64649;SDS011;51061;45.258;38.112;2022-10-20T16:59:54;20.27;;;5.10;;
64649;SDS011;51061;45.258;38.112;2022-10-20T17:02:20;7.22;;;2.30;;
64649;SDS011;51061;45.258;38.112;2022-10-20T17:04:48;6.07;;;2.70;;
64649;SDS011;51061;45.258;38.112;2022-10-20T17:07:14;10.03;;;3.33;;
64649;SDS011;51061;45.258;38.112;2022-10-20T17:09:41;5.50;;;2.17;;
64649;SDS011;51061;45.258;38.112;2022-10-20T17:12:07;10.43;;;3.42;;
64649;SDS011;51061;45.258;38.112;2022-10-20T17:14:33;8.15;;;2.85;;
64649;SDS011;51061;45.258;38.112;2022-10-20T17:16:59;8.85;;;2.72;;
64649;SDS011;51061;45.258;38.112;2022-10-20T17:19:25;6.00;;;2.55;;
64649;SDS011;51061;45.258;38.112;2022-10-20T17:24:18;7.33;;;2.23;;
64649;SDS011;51061;45.258;38.112;2022-10-20T17:26:45;4.97;;;2.10;;
64649;SDS011;51061;45.258;38.112;2022-10-20T17:29:11;4.85;;;2.13;;
64649;SDS011;51061;45.258;38.112;2022-10-20T17:31:37;7.40;;;2.47;;
64649;SDS011;51061;45.258;38.112;2022-10-20T17:34:04;7.90;;;2.13;;
64649;SDS011;51061;45.258;38.112;2022-10-20T17:36:30;3.88;;;1.70;;
64649;SDS011;51061;45.258;38.112;2022-10-20T17:38:57;7.03;;;2.35;;
64649;SDS011;51061;45.258;38.112;2022-10-20T17:41:27;5.00;;;2.17;;
64649;SDS011;51061;45.258;38.112;2022-10-20T17:43:54;4.27;;;2.00;;
64649;SDS011;51061;45.258;38.112;2022-10-20T17:46:23;10.83;;;2.77;;
64649;SDS011;51061;45.258;38.112;2022-10-20T17:48:49;5.85;;;2.05;;
64649;SDS011;51061;45.258;38.112;2022-10-20T17:51:16;10.13;;;2.60;;
64649;SDS011;51061;45.258;38.112;2022-10-20T17:53:48;6.30;;;2.60;;
64649;SDS011;51061;45.258;38.112;2022-10-20T17:56:20;9.57;;;2.33;;
64649;SDS011;51061;45.258;38.112;2022-10-20T17:58:51;4.67;;;1.97;;
64649;SDS011;51061;45.258;38.112;2022-10-20T18:01:19;6.87;;;2.33;;
64649;SDS011;51061;45.258;38.112;2022-10-20T18:04:07;6.27;;;2.60;;
64649;SDS011;51061;45.258;38.112;2022-10-20T18:06:35;4.20;;;2.20;;
64649;SDS011;51061;45.258;38.112;2022-10-20T18:09:03;7.30;;;2.27;;
64649;SDS011;51061;45.258;38.112;2022-10-20T18:11:33;7.57;;;2.23;;
64649;SDS011;51061;45.258;38.112;2022-10-20T18:14:00;4.13;;;1.63;;
64649;SDS011;51061;45.258;38.112;2022-10-20T18:16:27;5.50;;;2.30;;
64649;SDS011;51061;45.258;38.112;2022-10-20T18:18:55;5.33;;;1.90;;
64649;SDS011;51061;45.258;38.112;2022-10-20T18:21:23;4.83;;;1.67;;
64649;SDS011;51061;45.258;38.112;2022-10-20T18:23:55;6.30;;;2.10;;
64649;SDS011;51061;45.258;38.112;2022-10-20T18:26:22;5.43;;;2.40;;
64649;SDS011;51061;45.258;38.112;2022-10-20T18:33:44;8.53;;;2.10;;
64649;SDS011;51061;45.258;38.112;2022-10-20T18:36:11;10.70;;;3.10;;
64649;SDS011;51061;45.258;38.112;2022-10-20T18:38:40;8.10;;;2.57;;
64649;SDS011;51061;45.258;38.112;2022-10-20T18:41:15;9.07;;;2.40;;
64649;SDS011;51061;45.258;38.112;2022-10-20T18:43:43;10.07;;;2.07;;
64649;SDS011;51061;45.258;38.112;2022-10-20T18:46:13;5.60;;;2.13;;
64649;SDS011;51061;45.258;38.112;2022-10-20T18:48:40;5.83;;;2.23;;
64649;SDS011;51061;45.258;38.112;2022-10-20T18:51:08;8.77;;;2.43;;
64649;SDS011;51061;45.258;38.112;2022-10-20T18:53:35;6.37;;;2.33;;
64649;SDS011;51061;45.258;38.112;2022-10-20T18:58:38;4.00;;;1.80;;
64649;SDS011;51061;45.258;38.112;2022-10-20T19:01:11;3.73;;;1.80;;